createdAt,value
2022-10-22T00:01:36.943Z,100779.66
2022-10-22T00:04:03.837Z,100787.41
2022-10-22T00:06:30.348Z,100791.34
2022-10-22T00:08:56.802Z,100798.88
2022-10-22T00:11:23.446Z,100806.31
2022-10-22T00:13:50.166Z,100800.28
2022-10-22T00:16:16.612Z,100800.28
2022-10-22T00:18:43.252Z,100808.00
2022-10-22T00:21:09.789Z,100809.19
2022-10-22T00:23:36.230Z,100788.53
2022-10-22T00:26:02.674Z,100799.66
2022-10-22T00:28:29.073Z,100797.16
2022-10-22T00:30:59.604Z,100797.50
2022-10-22T00:33:26.850Z,100788.53
2022-10-22T00:35:53.354Z,100804.63
2022-10-22T00:38:19.758Z,100800.09
2022-10-22T00:40:46.445Z,100800.84
2022-10-22T00:43:18.110Z,100808.69
2022-10-22T00:45:46.069Z,100805.38
2022-10-22T00:48:18.783Z,100810.78
2022-10-22T00:50:49.370Z,100806.91
2022-10-22T00:53:20.997Z,100812.50
2022-10-22T00:55:52.441Z,100816.78
2022-10-22T00:58:21.220Z,100814.19
2022-10-22T01:00:48.616Z,100814.72
2022-10-22T01:03:15.211Z,100803.28
2022-10-22T01:05:53.832Z,100818.91
2022-10-22T01:08:29.191Z,100819.09
2022-10-22T01:11:30.439Z,100817.47
2022-10-22T01:14:39.074Z,100827.56
2022-10-22T01:17:31.807Z,100827.00
2022-10-22T01:20:22.528Z,100833.88
2022-10-22T01:23:34.148Z,100832.44
2022-10-22T01:26:06.871Z,100839.19
2022-10-22T01:28:56.478Z,100836.94
2022-10-22T01:31:24.247Z,100822.47
2022-10-22T01:33:51.750Z,100825.56
2022-10-22T01:36:18.617Z,100821.63
2022-10-22T01:38:46.172Z,100823.84
2022-10-22T01:41:13.828Z,100811.91
2022-10-22T01:43:40.217Z,100802.69
2022-10-22T01:46:07.254Z,100807.44
2022-10-22T01:48:56.252Z,100811.00
2022-10-22T01:51:49.956Z,100798.88
2022-10-22T01:54:38.588Z,100800.41
2022-10-22T01:57:17.702Z,100803.09
2022-10-22T02:00:12.687Z,100809.66
2022-10-22T02:02:49.865Z,100801.94
2022-10-22T02:05:21.306Z,100807.31
2022-10-22T02:07:51.228Z,100814.31
2022-10-22T02:10:18.530Z,100809.91
2022-10-22T02:12:46.313Z,100812.28
2022-10-22T02:15:13.680Z,100807.22
2022-10-22T02:17:42.648Z,100815.56
2022-10-22T02:20:18.608Z,100806.34
2022-10-22T02:22:45.455Z,100807.53
2022-10-22T02:25:12.293Z,100807.22
2022-10-22T02:27:44.450Z,100804.09
2022-10-22T02:30:21.891Z,100805.94
2022-10-22T02:33:17.989Z,100806.28
2022-10-22T02:35:44.626Z,100800.75
2022-10-22T02:38:11.657Z,100808.13
2022-10-22T02:40:38.385Z,100814.91
2022-10-22T02:43:06.001Z,100819.31
2022-10-22T02:45:32.645Z,100817.16
2022-10-22T02:47:59.112Z,100820.13
2022-10-22T02:50:25.543Z,100827.00
2022-10-22T02:52:52.019Z,100827.00
2022-10-22T02:55:18.475Z,100827.00
2022-10-22T02:57:46.104Z,100826.56
2022-10-22T03:00:12.908Z,100829.13
2022-10-22T03:02:39.453Z,100836.44
2022-10-22T03:05:06.438Z,100834.94
2022-10-22T03:07:33.053Z,100832.81
2022-10-22T03:09:59.843Z,100828.41
2022-10-22T03:12:26.239Z,100827.47
2022-10-22T03:14:52.708Z,100827.66
2022-10-22T03:17:19.173Z,100836.22
2022-10-22T03:19:45.581Z,100832.81
2022-10-22T03:22:15.968Z,100844.56
2022-10-22T03:24:44.769Z,100843.81
2022-10-22T03:27:13.237Z,100845.44
2022-10-22T03:29:40.513Z,100842.44
2022-10-22T03:32:07.395Z,100849.81
2022-10-22T03:34:33.822Z,100844.47
2022-10-22T03:37:01.444Z,100845.50
2022-10-22T03:39:29.865Z,100856.78
2022-10-22T03:41:56.394Z,100851.22
2022-10-22T03:44:23.609Z,100846.50
2022-10-22T03:46:50.937Z,100837.94
2022-10-22T03:49:17.317Z,100839.00
2022-10-22T03:51:43.717Z,100839.88
2022-10-22T03:54:10.120Z,100834.53
2022-10-22T03:56:36.560Z,100835.78
2022-10-22T03:59:03.575Z,100833.09
2022-10-22T04:01:30.934Z,100837.50
2022-10-22T04:03:57.952Z,100832.59
2022-10-22T04:06:24.667Z,100852.50
2022-10-22T04:08:51.476Z,100841.66
2022-10-22T04:11:18.106Z,100857.94
2022-10-22T04:13:44.588Z,100857.41
2022-10-22T04:16:13.908Z,100861.56
2022-10-22T04:18:41.091Z,100855.03
2022-10-22T04:21:08.705Z,100861.13
2022-10-22T04:23:35.153Z,100859.56
2022-10-22T04:26:03.719Z,100876.38
2022-10-22T04:28:30.350Z,100868.88
2022-10-22T04:30:56.850Z,100873.47
2022-10-22T04:33:23.442Z,100870.34
2022-10-22T04:35:51.229Z,100872.50
2022-10-22T04:38:17.700Z,100862.69
2022-10-22T04:40:44.179Z,100865.16
2022-10-22T04:43:10.688Z,100857.31
2022-10-22T04:45:37.137Z,100866.22
2022-10-22T04:48:03.582Z,100858.06
2022-10-22T04:50:30.844Z,100849.72
2022-10-22T04:52:57.274Z,100853.69
2022-10-22T04:55:23.739Z,100861.28
2022-10-22T04:57:50.335Z,100863.50
2022-10-22T05:00:17.154Z,100866.66
2022-10-22T05:02:44.765Z,100869.53
2022-10-22T05:05:11.954Z,100869.84
2022-10-22T05:07:38.783Z,100859.13
2022-10-22T05:10:06.296Z,100864.38
2022-10-22T05:12:32.824Z,100865.00
2022-10-22T05:14:59.312Z,100874.56
2022-10-22T05:17:25.750Z,100869.31
2022-10-22T05:19:52.198Z,100864.03
2022-10-22T05:22:18.699Z,100857.31
2022-10-22T05:24:45.173Z,100859.63
2022-10-22T05:27:11.637Z,100860.09
2022-10-22T05:29:38.186Z,100875.34
2022-10-22T05:32:05.114Z,100863.16
2022-10-22T05:34:33.262Z,100873.97
2022-10-22T05:36:59.670Z,100877.81
2022-10-22T05:39:26.255Z,100876.19
2022-10-22T05:41:53.944Z,100868.69
2022-10-22T05:44:20.517Z,100877.06
2022-10-22T05:46:46.987Z,100881.00
2022-10-22T05:49:15.347Z,100874.75
2022-10-22T05:51:41.909Z,100890.09
2022-10-22T05:54:08.616Z,100884.94
2022-10-22T05:56:35.434Z,100877.66
2022-10-22T06:01:35.269Z,100890.47
2022-10-22T06:04:04.173Z,100890.56
2022-10-22T06:06:34.580Z,100894.50
2022-10-22T06:09:04.544Z,100884.00
2022-10-22T06:11:34.219Z,100896.97
2022-10-22T06:14:01.780Z,100902.50
2022-10-22T06:16:29.889Z,100894.09
2022-10-22T06:18:56.380Z,100903.72
2022-10-22T06:21:22.939Z,100898.72
2022-10-22T06:23:49.446Z,100900.22
2022-10-22T06:26:17.798Z,100913.94
2022-10-22T06:28:44.232Z,100909.75
2022-10-22T06:31:10.678Z,100910.97
2022-10-22T06:33:42.231Z,100904.06
2022-10-22T06:36:14.109Z,100916.56
2022-10-22T06:38:40.944Z,100922.38
2022-10-22T06:41:10.003Z,100920.81
2022-10-22T06:43:36.684Z,100928.50
2022-10-22T06:46:05.822Z,100933.19
2022-10-22T06:48:32.993Z,100928.00
2022-10-22T06:51:04.099Z,100944.53
2022-10-22T06:53:31.969Z,100945.75
2022-10-22T06:55:58.377Z,100943.84
2022-10-22T06:58:24.805Z,100944.38
2022-10-22T07:01:05.397Z,100951.88
2022-10-22T07:03:31.990Z,100951.88
2022-10-22T07:06:03.080Z,100952.03
2022-10-22T07:08:29.785Z,100951.75
2022-10-22T07:10:56.768Z,100965.59
2022-10-22T07:13:23.356Z,100966.97
2022-10-22T07:15:54.779Z,100976.09
2022-10-22T07:18:22.315Z,100975.56
2022-10-22T07:20:49.654Z,100980.06
2022-10-22T07:23:16.557Z,100981.44
2022-10-22T07:25:43.012Z,100986.34
2022-10-22T07:28:09.994Z,100985.41
2022-10-22T07:30:37.779Z,100986.91
2022-10-22T07:33:04.561Z,100991.13
2022-10-22T07:35:31.287Z,100997.25
2022-10-22T07:37:57.697Z,101003.25
2022-10-22T07:40:24.126Z,100999.13
2022-10-22T07:42:50.616Z,100996.88
2022-10-22T07:45:17.091Z,100985.81
2022-10-22T07:47:43.883Z,101015.38
2022-10-22T07:50:10.466Z,101000.16
2022-10-22T07:52:36.894Z,101003.59
2022-10-22T07:55:04.190Z,101013.47
2022-10-22T07:57:30.667Z,101007.50
2022-10-22T07:59:58.111Z,101004.78
2022-10-22T08:02:25.297Z,101011.56
2022-10-22T08:04:52.052Z,101003.63
2022-10-22T08:07:18.902Z,101013.19
2022-10-22T08:09:45.452Z,101000.78
2022-10-22T08:12:12.204Z,101026.81
2022-10-22T08:14:38.622Z,101013.84
2022-10-22T08:17:05.201Z,101014.41
2022-10-22T08:19:32.489Z,101014.56
2022-10-22T08:21:59.445Z,101011.56
2022-10-22T08:24:27.019Z,101025.16
2022-10-22T08:26:55.730Z,101024.25
2022-10-22T08:29:23.397Z,101028.44
2022-10-22T08:31:50.437Z,101019.91
2022-10-22T08:34:17.288Z,101015.88
2022-10-22T08:36:43.895Z,101021.50
2022-10-22T08:39:10.340Z,101031.53
2022-10-22T08:41:45.597Z,101025.97
2022-10-22T08:44:27.387Z,101035.56
2022-10-22T08:47:18.753Z,101042.13
2022-10-22T08:49:48.040Z,101039.97
2022-10-22T08:52:17.508Z,101037.22
2022-10-22T08:54:58.710Z,101030.59
2022-10-22T08:57:49.962Z,101036.81
2022-10-22T09:00:33.885Z,101035.53
2022-10-22T09:03:19.290Z,101037.88
2022-10-22T09:08:21.924Z,101039.94
2022-10-22T09:10:57.402Z,101034.72
2022-10-22T09:13:24.118Z,101038.78
2022-10-22T09:15:55.330Z,101040.81
2022-10-22T09:18:33.650Z,101040.13
2022-10-22T09:21:07.466Z,101049.50
2022-10-22T09:23:39.196Z,101046.03
2022-10-22T09:26:25.548Z,101054.34
2022-10-22T09:28:52.150Z,101050.06
2022-10-22T09:31:19.400Z,101059.84
2022-10-22T09:33:48.906Z,101055.59
2022-10-22T09:36:21.893Z,101056.16
2022-10-22T09:38:51.271Z,101055.88
2022-10-22T09:41:19.508Z,101059.44
2022-10-22T09:43:49.497Z,101058.94
2022-10-22T09:46:21.255Z,101062.00
2022-10-22T09:49:18.164Z,101068.53
2022-10-22T09:51:54.899Z,101069.06
2022-10-22T09:54:31.586Z,101064.34
2022-10-22T09:57:04.274Z,101074.88
2022-10-22T09:59:32.825Z,101067.03
2022-10-22T10:02:13.532Z,101077.63
2022-10-22T10:04:52.575Z,101071.13
2022-10-22T10:07:24.882Z,101079.41
2022-10-22T10:09:52.095Z,101079.78
2022-10-22T10:12:39.954Z,101086.13
2022-10-22T10:15:28.663Z,101095.31
2022-10-22T10:18:12.548Z,101093.25
2022-10-22T10:20:45.703Z,101100.72
2022-10-22T10:23:32.320Z,101100.84
2022-10-22T10:26:14.420Z,101102.06
2022-10-22T10:29:00.841Z,101095.03
2022-10-22T10:31:38.931Z,101095.00
2022-10-22T10:34:22.310Z,101092.78
2022-10-22T10:37:04.213Z,101094.50
2022-10-22T10:39:58.750Z,101095.63
2022-10-22T10:42:44.659Z,101095.34
2022-10-22T10:45:22.540Z,101097.63
2022-10-22T10:48:04.262Z,101098.94
2022-10-22T10:50:32.897Z,101097.34
2022-10-22T10:53:18.120Z,101101.94
2022-10-22T10:56:06.336Z,101100.88
2022-10-22T10:58:51.377Z,101099.91
2022-10-22T11:01:27.118Z,101097.72
2022-10-22T11:04:15.760Z,101105.25
2022-10-22T11:06:43.746Z,101109.63
2022-10-22T11:09:29.832Z,101104.00
2022-10-22T11:12:03.992Z,101116.28
2022-10-22T11:14:36.131Z,101111.59
2022-10-22T11:17:07.199Z,101110.09
2022-10-22T11:19:50.908Z,101121.38
2022-10-22T11:22:34.241Z,101121.69
2022-10-22T11:25:12.760Z,101118.69
2022-10-22T11:27:42.091Z,101111.72
2022-10-22T11:30:15.456Z,101115.69
2022-10-22T11:32:43.960Z,101121.84
2022-10-22T11:35:17.076Z,101117.94
2022-10-22T11:37:44.932Z,101129.66
2022-10-22T11:40:20.197Z,101126.91
2022-10-22T11:42:54.192Z,101122.81
2022-10-22T11:45:23.802Z,101131.00
2022-10-22T11:48:08.366Z,101143.22
2022-10-22T11:50:41.008Z,101131.75
2022-10-22T11:53:13.529Z,101141.38
2022-10-22T11:55:45.428Z,101133.38
2022-10-22T11:58:31.960Z,101141.41
2022-10-22T12:01:03.768Z,101133.16
2022-10-22T12:03:33.107Z,101125.97
2022-10-22T12:06:11.681Z,101128.47
2022-10-22T12:08:44.894Z,101133.78
2022-10-22T12:11:13.785Z,101137.81
2022-10-22T12:14:01.359Z,101125.22
2022-10-22T12:16:54.735Z,101127.78
2022-10-22T12:19:32.458Z,101128.75
2022-10-22T12:22:08.204Z,101126.50
2022-10-22T12:24:37.558Z,101136.75
2022-10-22T12:27:04.198Z,101128.72
2022-10-22T12:29:32.152Z,101135.47
2022-10-22T12:32:03.268Z,101127.19
2022-10-22T12:34:29.689Z,101137.03
2022-10-22T12:36:57.116Z,101130.56
2022-10-22T12:39:27.111Z,101129.72
2022-10-22T12:41:54.915Z,101125.06
2022-10-22T12:44:21.408Z,101131.75
2022-10-22T12:46:52.931Z,101131.47
2022-10-22T12:49:25.649Z,101124.97
2022-10-22T12:51:52.044Z,101126.09
2022-10-22T12:54:29.064Z,101116.47
2022-10-22T12:56:56.552Z,101119.38
2022-10-22T12:59:45.903Z,101121.38
2022-10-22T13:02:21.509Z,101126.28
2022-10-22T13:05:14.943Z,101118.63
2022-10-22T13:07:43.549Z,101118.75
2022-10-22T13:10:32.337Z,101125.00
2022-10-22T13:12:59.361Z,101126.59
2022-10-22T13:15:31.867Z,101131.84
2022-10-22T13:18:03.814Z,101135.00
2022-10-22T13:20:30.574Z,101128.09
2022-10-22T13:23:02.787Z,101119.25
2022-10-22T13:25:32.100Z,101130.09
2022-10-22T13:28:20.112Z,101138.06
2022-10-22T13:31:14.308Z,101136.50
2022-10-22T13:33:46.119Z,101136.25
2022-10-22T13:36:16.428Z,101143.72
2022-10-22T13:38:43.529Z,101138.69
2022-10-22T13:41:33.668Z,101153.19
2022-10-22T13:44:00.123Z,101147.66
2022-10-22T13:46:27.115Z,101142.88
2022-10-22T13:48:57.246Z,101146.22
2022-10-22T13:51:31.274Z,101145.69
2022-10-22T13:53:57.839Z,101144.38
2022-10-22T13:56:24.376Z,101144.44
2022-10-22T13:58:51.169Z,101151.81
2022-10-22T14:01:26.019Z,101151.06
2022-10-22T14:03:54.665Z,101151.75
2022-10-22T14:06:22.498Z,101150.16
2022-10-22T14:08:54.402Z,101151.78
2022-10-22T14:11:20.918Z,101150.03
2022-10-22T14:13:47.382Z,101158.56
2022-10-22T14:16:17.936Z,101155.16
2022-10-22T14:18:44.391Z,101159.13
2022-10-22T14:21:12.862Z,101152.34
2022-10-22T14:23:39.929Z,101163.34
2022-10-22T14:26:07.844Z,101156.50
2022-10-22T14:28:41.341Z,101164.22
2022-10-22T14:31:12.911Z,101163.41
2022-10-22T14:33:39.400Z,101167.72
2022-10-22T14:36:06.430Z,101165.31
2022-10-22T14:38:32.872Z,101161.31
2022-10-22T14:40:59.853Z,101179.41
2022-10-22T14:43:28.640Z,101167.53
2022-10-22T14:45:55.383Z,101167.16
2022-10-22T14:48:21.782Z,101170.91
2022-10-22T14:50:48.585Z,101175.97
2022-10-22T14:53:16.771Z,101181.00
2022-10-22T14:55:44.209Z,101179.97
2022-10-22T14:58:12.302Z,101181.28
2022-10-22T15:00:41.848Z,101178.31
2022-10-22T15:03:08.644Z,101188.66
2022-10-22T15:05:36.686Z,101186.41
2022-10-22T15:08:03.262Z,101188.28
2022-10-22T15:10:29.691Z,101197.06
2022-10-22T15:12:56.190Z,101211.25
2022-10-22T15:15:23.280Z,101203.50
2022-10-22T15:17:51.074Z,101207.69
2022-10-22T15:20:17.481Z,101196.81
2022-10-22T15:22:45.272Z,101211.41
2022-10-22T15:25:12.885Z,101209.22
2022-10-22T15:27:39.507Z,101210.13
2022-10-22T15:30:07.683Z,101211.00
2022-10-22T15:32:34.219Z,101211.53
2022-10-22T15:35:01.556Z,101220.44
2022-10-22T15:37:28.208Z,101212.34
2022-10-22T15:39:54.672Z,101213.34
2022-10-22T15:42:21.144Z,101207.53
2022-10-22T15:44:47.651Z,101215.50
2022-10-22T15:47:14.129Z,101214.31
2022-10-22T15:49:41.856Z,101214.00
2022-10-22T15:52:09.200Z,101223.03
2022-10-22T15:54:35.798Z,101223.66
2022-10-22T15:57:03.525Z,101225.78
2022-10-22T15:59:30.298Z,101218.03
2022-10-22T16:01:56.758Z,101230.00
2022-10-22T16:04:23.171Z,101235.00
2022-10-22T16:06:52.760Z,101230.63
2022-10-22T16:09:24.633Z,101234.25
2022-10-22T16:14:24.030Z,101233.72
2022-10-22T16:16:52.271Z,101240.66
2022-10-22T16:19:20.489Z,101241.16
2022-10-22T16:21:50.746Z,101235.03
2022-10-22T16:24:17.665Z,101242.72
2022-10-22T16:26:44.319Z,101248.09
2022-10-22T16:29:12.504Z,101251.22
2022-10-22T16:31:40.195Z,101252.44
2022-10-22T16:34:07.393Z,101258.56
2022-10-22T16:36:34.055Z,101269.63
2022-10-22T16:39:00.450Z,101269.50
2022-10-22T16:41:34.785Z,101273.34
2022-10-22T16:44:03.294Z,101272.44
2022-10-22T16:46:30.758Z,101265.53
2022-10-22T16:48:57.250Z,101267.00
2022-10-22T16:51:25.421Z,101274.47
2022-10-22T16:53:52.624Z,101283.16
2022-10-22T16:56:19.805Z,101278.56
2022-10-22T16:58:51.929Z,101285.91
2022-10-22T17:01:20.269Z,101293.84
2022-10-22T17:03:47.074Z,101297.88
2022-10-22T17:06:13.751Z,101290.44
2022-10-22T17:08:41.222Z,101293.63
2022-10-22T17:11:09.296Z,101301.50
2022-10-22T17:13:36.291Z,101296.56
2022-10-22T17:16:08.866Z,101302.38
2022-10-22T17:18:37.270Z,101305.81
2022-10-22T17:21:05.173Z,101303.25
2022-10-22T17:23:31.762Z,101303.13
2022-10-22T17:26:03.030Z,101307.66
2022-10-22T17:28:30.217Z,101308.38
2022-10-22T17:31:06.671Z,101320.78
2022-10-22T17:33:34.268Z,101309.53
2022-10-22T17:36:01.174Z,101318.16
2022-10-22T17:38:27.710Z,101322.41
2022-10-22T17:40:54.523Z,101324.91
2022-10-22T17:43:21.028Z,101331.78
2022-10-22T17:45:47.541Z,101323.66
2022-10-22T17:48:13.970Z,101330.75
2022-10-22T17:50:46.983Z,101335.50
2022-10-22T17:53:17.885Z,101345.31
2022-10-22T17:55:44.300Z,101344.22
2022-10-22T17:58:10.913Z,101342.53
2022-10-22T18:00:37.431Z,101338.22
2022-10-22T18:03:03.953Z,101352.00
2022-10-22T18:05:30.372Z,101348.69
2022-10-22T18:07:57.452Z,101341.72
2022-10-22T18:10:24.146Z,101352.69
2022-10-22T18:12:50.790Z,101356.69
2022-10-22T18:15:17.580Z,101359.66
2022-10-22T18:17:44.455Z,101357.84
2022-10-22T18:20:11.776Z,101354.59
2022-10-22T18:22:41.280Z,101359.22
2022-10-22T18:25:08.736Z,101369.16
2022-10-22T18:27:35.150Z,101370.31
2022-10-22T18:30:01.553Z,101367.00
2022-10-22T18:32:27.988Z,101357.84
2022-10-22T18:34:54.369Z,101368.94
2022-10-22T18:37:20.819Z,101369.34
2022-10-22T18:39:47.282Z,101374.09
2022-10-22T18:44:40.055Z,101370.31
2022-10-22T18:47:08.580Z,101374.94
2022-10-22T18:49:35.211Z,101354.00
2022-10-22T18:52:01.644Z,101357.31
2022-10-22T18:54:28.076Z,101367.53
2022-10-22T18:56:59.381Z,101376.25
2022-10-22T18:59:28.425Z,101382.44
2022-10-22T19:01:57.552Z,101385.03
2022-10-22T19:04:23.931Z,101374.34
2022-10-22T19:06:50.408Z,101385.28
2022-10-22T19:09:17.481Z,101377.16
2022-10-22T19:11:44.747Z,101376.00
2022-10-22T19:14:13.097Z,101381.56
2022-10-22T19:16:39.573Z,101384.44
2022-10-22T19:19:06.999Z,101377.75
2022-10-22T19:21:33.471Z,101386.34
2022-10-22T19:24:00.813Z,101384.16
2022-10-22T19:26:28.680Z,101388.56
2022-10-22T19:28:55.937Z,101391.00
2022-10-22T19:31:24.402Z,101387.31
2022-10-22T19:33:51.895Z,101385.59
2022-10-22T19:36:20.048Z,101395.13
2022-10-22T19:38:48.227Z,101391.41
2022-10-22T19:41:17.817Z,101394.13
2022-10-22T19:43:45.422Z,101398.81
2022-10-22T19:46:12.299Z,101407.38
2022-10-22T19:48:38.759Z,101396.34
2022-10-22T19:51:08.704Z,101402.53
2022-10-22T19:53:37.253Z,101405.56
2022-10-22T19:56:06.532Z,101401.91
2022-10-22T19:58:33.712Z,101402.72
2022-10-22T20:01:08.833Z,101408.19
2022-10-22T20:03:36.435Z,101400.22
2022-10-22T20:06:04.108Z,101399.13
2022-10-22T20:08:32.014Z,101394.53
2022-10-22T20:10:58.571Z,101396.94
2022-10-22T20:13:25.032Z,101402.38
2022-10-22T20:15:53.514Z,101398.97
2022-10-22T20:18:22.293Z,101401.41
2022-10-22T20:20:49.208Z,101395.84
2022-10-22T20:23:15.740Z,101411.28
2022-10-22T20:25:43.709Z,101415.88
2022-10-22T20:28:10.360Z,101405.75
2022-10-22T20:30:41.569Z,101415.78
2022-10-22T20:33:08.230Z,101409.00
2022-10-22T20:35:35.636Z,101422.50
2022-10-22T20:38:02.548Z,101415.44
2022-10-22T20:40:30.696Z,101411.72
2022-10-22T20:42:57.112Z,101421.28
2022-10-22T20:45:23.917Z,101410.22
2022-10-22T20:47:51.781Z,101420.81
2022-10-22T20:50:29.626Z,101418.69
2022-10-22T20:52:56.081Z,101427.91
2022-10-22T20:55:22.661Z,101437.16
2022-10-22T20:57:49.330Z,101421.66
2022-10-22T21:00:15.895Z,101426.59
2022-10-22T21:02:42.419Z,101432.22
2022-10-22T21:05:09.146Z,101432.91
2022-10-22T21:07:35.619Z,101429.63
2022-10-22T21:10:02.687Z,101433.13
2022-10-22T21:12:29.121Z,101428.59
2022-10-22T21:14:55.560Z,101427.50
2022-10-22T21:17:21.978Z,101423.28
2022-10-22T21:19:48.490Z,101419.19
2022-10-22T21:22:14.926Z,101409.66
2022-10-22T21:24:42.158Z,101410.91
2022-10-22T21:27:08.640Z,101415.59
2022-10-22T21:29:36.616Z,101415.13
2022-10-22T21:32:03.153Z,101414.13
2022-10-22T21:34:29.571Z,101420.38
2022-10-22T21:36:56.043Z,101421.19
2022-10-22T21:39:22.446Z,101418.78
2022-10-22T21:41:48.865Z,101409.69
2022-10-22T21:44:15.260Z,101429.84
2022-10-22T21:46:41.670Z,101421.13
2022-10-22T21:49:08.221Z,101415.75
2022-10-22T21:51:37.973Z,101415.41
2022-10-22T21:54:04.897Z,101417.28
2022-10-22T21:56:33.689Z,101411.91
2022-10-22T21:59:00.734Z,101418.78
2022-10-22T22:01:27.253Z,101420.38
2022-10-22T22:03:53.842Z,101422.75
2022-10-22T22:06:23.345Z,101417.41
2022-10-22T22:08:51.608Z,101422.06
2022-10-22T22:11:23.061Z,101421.41
2022-10-22T22:13:50.087Z,101422.94
2022-10-22T22:16:22.450Z,101422.19
2022-10-22T22:18:52.129Z,101435.84
2022-10-22T22:21:20.428Z,101427.97
2022-10-22T22:23:48.198Z,101424.69
2022-10-22T22:26:18.025Z,101426.97
2022-10-22T22:28:44.424Z,101430.94
2022-10-22T22:31:18.764Z,101425.66
2022-10-22T22:33:45.749Z,101431.69
2022-10-22T22:36:12.225Z,101411.09
2022-10-22T22:38:38.823Z,101427.50
2022-10-22T22:41:06.281Z,101423.31
2022-10-22T22:43:33.006Z,101420.44
2022-10-22T22:46:11.863Z,101424.28
2022-10-22T22:48:38.443Z,101426.97
2022-10-22T22:51:06.248Z,101423.59
2022-10-22T22:53:34.354Z,101432.03
2022-10-22T22:56:22.174Z,101436.63
2022-10-22T22:58:48.675Z,101426.75
2022-10-22T23:01:29.490Z,101433.16
2022-10-22T23:04:14.260Z,101426.63
2022-10-22T23:06:40.768Z,101424.38
2022-10-22T23:09:10.314Z,101412.66
2022-10-22T23:11:37.221Z,101425.59
2022-10-22T23:14:05.701Z,101431.81
2022-10-22T23:16:34.873Z,101435.63
2022-10-22T23:19:04.337Z,101427.59
2022-10-22T23:21:33.543Z,101432.44
2022-10-22T23:24:02.296Z,101441.72
2022-10-22T23:26:31.463Z,101439.53
2022-10-22T23:29:02.610Z,101431.28
2022-10-22T23:31:29.274Z,101438.81
2022-10-22T23:33:55.804Z,101427.44
2022-10-22T23:36:22.215Z,101435.28
2022-10-22T23:38:50.179Z,101434.97
2022-10-22T23:41:17.293Z,101422.31
2022-10-22T23:43:44.041Z,101416.25
2022-10-22T23:46:11.912Z,101416.69
2022-10-22T23:48:41.674Z,101412.47
2022-10-22T23:51:11.581Z,101420.13
2022-10-22T23:53:38.533Z,101420.88
2022-10-22T23:56:07.299Z,101423.63
2022-10-22T23:58:34.626Z,101420.25
